sensor_id;sensor_type;location;lat;lon;timestamp;temperature;humidity
2190;DHT22;1101;51.056;7.262;2023-08-20T00:00:02;20.20;99.90
2190;DHT22;1101;51.056;7.262;2023-08-20T00:02:32;20.20;99.90
2190;DHT22;1101;51.056;7.262;2023-08-20T00:05:01;20.20;99.90
2190;DHT22;1101;51.056;7.262;2023-08-20T00:07:31;20.20;99.90
2190;DHT22;1101;51.056;7.262;2023-08-20T00:09:59;20.20;99.90
2190;DHT22;1101;51.056;7.262;2023-08-20T00:12:27;20.20;99.90
2190;DHT22;1101;51.056;7.262;2023-08-20T00:14:56;20.20;99.90
2190;DHT22;1101;51.056;7.262;2023-08-20T00:17:27;20.20;99.90
2190;DHT22;1101;51.056;7.262;2023-08-20T00:19:55;20.20;99.90
2190;DHT22;1101;51.056;7.262;2023-08-20T00:22:24;20.20;99.90
2190;DHT22;1101;51.056;7.262;2023-08-20T00:24:53;20.20;99.90
2190;DHT22;1101;51.056;7.262;2023-08-20T00:27:22;20.20;99.90
2190;DHT22;1101;51.056;7.262;2023-08-20T00:29:49;20.20;99.90
2190;DHT22;1101;51.056;7.262;2023-08-20T00:32:17;20.20;99.90
2190;DHT22;1101;51.056;7.262;2023-08-20T00:34:46;20.20;99.90
2190;DHT22;1101;51.056;7.262;2023-08-20T00:37:14;20.20;99.90
2190;DHT22;1101;51.056;7.262;2023-08-20T00:39:42;20.20;99.90
2190;DHT22;1101;51.056;7.262;2023-08-20T00:42:10;20.20;99.90
2190;DHT22;1101;51.056;7.262;2023-08-20T00:44:40;20.20;99.90
2190;DHT22;1101;51.056;7.262;2023-08-20T00:47:11;20.10;99.90
2190;DHT22;1101;51.056;7.262;2023-08-20T00:49:40;20.10;99.90
2190;DHT22;1101;51.056;7.262;2023-08-20T00:52:11;20.10;99.90
2190;DHT22;1101;51.056;7.262;2023-08-20T00:54:40;20.10;99.90
2190;DHT22;1101;51.056;7.262;2023-08-20T00:57:08;20.10;99.90
2190;DHT22;1101;51.056;7.262;2023-08-20T00:59:36;20.00;99.90
2190;DHT22;1101;51.056;7.262;2023-08-20T01:02:04;20.00;99.90
2190;DHT22;1101;51.056;7.262;2023-08-20T01:04:33;20.00;99.90
2190;DHT22;1101;51.056;7.262;2023-08-20T01:07:07;20.00;99.90
2190;DHT22;1101;51.056;7.262;2023-08-20T01:09:46;20.00;99.90
2190;DHT22;1101;51.056;7.262;2023-08-20T01:12:17;19.90;99.90
2190;DHT22;1101;51.056;7.262;2023-08-20T01:14:45;19.90;99.90
2190;DHT22;1101;51.056;7.262;2023-08-20T01:17:13;19.90;99.90
2190;DHT22;1101;51.056;7.262;2023-08-20T01:19:40;19.90;99.90
2190;DHT22;1101;51.056;7.262;2023-08-20T01:22:36;19.90;99.90
2190;DHT22;1101;51.056;7.262;2023-08-20T01:25:18;19.90;99.90
2190;DHT22;1101;51.056;7.262;2023-08-20T01:27:57;19.90;99.90
2190;DHT22;1101;51.056;7.262;2023-08-20T01:30:27;19.90;99.90
2190;DHT22;1101;51.056;7.262;2023-08-20T01:32:56;19.80;99.90
2190;DHT22;1101;51.056;7.262;2023-08-20T01:35:25;19.80;99.90
2190;DHT22;1101;51.056;7.262;2023-08-20T01:37:53;19.80;99.90
2190;DHT22;1101;51.056;7.262;2023-08-20T01:40:21;19.70;99.90
2190;DHT22;1101;51.056;7.262;2023-08-20T01:42:49;19.70;99.90
2190;DHT22;1101;51.056;7.262;2023-08-20T01:45:16;19.60;99.90
2190;DHT22;1101;51.056;7.262;2023-08-20T01:47:46;19.60;99.90
2190;DHT22;1101;51.056;7.262;2023-08-20T01:50:14;19.60;99.90
2190;DHT22;1101;51.056;7.262;2023-08-20T01:52:42;19.60;99.90
2190;DHT22;1101;51.056;7.262;2023-08-20T01:55:10;19.60;99.90
2190;DHT22;1101;51.056;7.262;2023-08-20T01:57:38;19.60;99.90
2190;DHT22;1101;51.056;7.262;2023-08-20T02:00:07;19.60;99.90
2190;DHT22;1101;51.056;7.262;2023-08-20T02:02:35;19.60;99.90
2190;DHT22;1101;51.056;7.262;2023-08-20T02:05:05;19.50;99.90
2190;DHT22;1101;51.056;7.262;2023-08-20T02:07:34;19.50;99.90
2190;DHT22;1101;51.056;7.262;2023-08-20T02:10:03;19.50;99.90
2190;DHT22;1101;51.056;7.262;2023-08-20T02:12:31;19.40;99.90
2190;DHT22;1101;51.056;7.262;2023-08-20T02:14:58;19.40;99.90
2190;DHT22;1101;51.056;7.262;2023-08-20T02:17:26;19.40;99.90
2190;DHT22;1101;51.056;7.262;2023-08-20T02:19:54;19.40;99.90
2190;DHT22;1101;51.056;7.262;2023-08-20T02:22:23;19.30;99.90
2190;DHT22;1101;51.056;7.262;2023-08-20T02:24:51;19.30;99.90
2190;DHT22;1101;51.056;7.262;2023-08-20T02:27:19;19.30;99.90
2190;DHT22;1101;51.056;7.262;2023-08-20T02:29:47;19.30;99.90
2190;DHT22;1101;51.056;7.262;2023-08-20T02:32:14;19.30;99.90
2190;DHT22;1101;51.056;7.262;2023-08-20T02:34:43;19.30;99.90
2190;DHT22;1101;51.056;7.262;2023-08-20T02:37:11;19.20;99.90
2190;DHT22;1101;51.056;7.262;2023-08-20T02:39:40;19.20;99.90
2190;DHT22;1101;51.056;7.262;2023-08-20T02:42:08;19.20;99.90
2190;DHT22;1101;51.056;7.262;2023-08-20T02:44:36;19.20;99.90
2190;DHT22;1101;51.056;7.262;2023-08-20T02:47:04;19.20;99.90
2190;DHT22;1101;51.056;7.262;2023-08-20T02:49:32;19.20;99.90
2190;DHT22;1101;51.056;7.262;2023-08-20T02:51:59;19.20;99.90
2190;DHT22;1101;51.056;7.262;2023-08-20T02:54:27;19.20;99.90
2190;DHT22;1101;51.056;7.262;2023-08-20T02:56:57;19.10;99.90
2190;DHT22;1101;51.056;7.262;2023-08-20T02:59:25;19.10;99.90
2190;DHT22;1101;51.056;7.262;2023-08-20T03:01:53;19.10;99.90
2190;DHT22;1101;51.056;7.262;2023-08-20T03:04:21;19.10;99.90
2190;DHT22;1101;51.056;7.262;2023-08-20T03:06:48;19.10;99.90
2190;DHT22;1101;51.056;7.262;2023-08-20T03:09:16;19.00;99.90
2190;DHT22;1101;51.056;7.262;2023-08-20T03:11:44;19.00;99.90
2190;DHT22;1101;51.056;7.262;2023-08-20T03:14:13;19.00;99.90
2190;DHT22;1101;51.056;7.262;2023-08-20T03:16:41;19.10;99.90
2190;DHT22;1101;51.056;7.262;2023-08-20T03:19:09;19.00;99.90
2190;DHT22;1101;51.056;7.262;2023-08-20T03:21:37;19.00;99.90
2190;DHT22;1101;51.056;7.262;2023-08-20T03:24:06;19.00;99.90
2190;DHT22;1101;51.056;7.262;2023-08-20T03:26:34;19.00;99.90
2190;DHT22;1101;51.056;7.262;2023-08-20T03:29:01;18.90;99.90
2190;DHT22;1101;51.056;7.262;2023-08-20T03:31:31;18.90;99.90
2190;DHT22;1101;51.056;7.262;2023-08-20T03:33:59;19.00;99.90
2190;DHT22;1101;51.056;7.262;2023-08-20T03:36:27;18.90;99.90
2190;DHT22;1101;51.056;7.262;2023-08-20T03:38:54;18.90;99.90
2190;DHT22;1101;51.056;7.262;2023-08-20T03:41:22;18.90;99.90
2190;DHT22;1101;51.056;7.262;2023-08-20T03:43:50;18.90;99.90
2190;DHT22;1101;51.056;7.262;2023-08-20T03:46:18;18.90;99.90
2190;DHT22;1101;51.056;7.262;2023-08-20T03:48:47;18.90;99.90
2190;DHT22;1101;51.056;7.262;2023-08-20T03:51:15;18.90;99.90
2190;DHT22;1101;51.056;7.262;2023-08-20T03:53:43;18.90;99.90
2190;DHT22;1101;51.056;7.262;2023-08-20T03:56:10;18.90;99.90
2190;DHT22;1101;51.056;7.262;2023-08-20T03:58:39;18.80;99.90
2190;DHT22;1101;51.056;7.262;2023-08-20T04:01:06;18.80;99.90
2190;DHT22;1101;51.056;7.262;2023-08-20T04:03:34;18.80;99.90
2190;DHT22;1101;51.056;7.262;2023-08-20T04:06:04;18.80;99.90
2190;DHT22;1101;51.056;7.262;2023-08-20T04:08:31;18.80;99.90
2190;DHT22;1101;51.056;7.262;2023-08-20T04:10:59;18.80;99.90
2190;DHT22;1101;51.056;7.262;2023-08-20T04:13:29;18.80;99.90
2190;DHT22;1101;51.056;7.262;2023-08-20T04:15:57;18.70;99.90
2190;DHT22;1101;51.056;7.262;2023-08-20T04:18:25;18.70;99.90
2190;DHT22;1101;51.056;7.262;2023-08-20T04:20:53;18.70;99.90
2190;DHT22;1101;51.056;7.262;2023-08-20T04:23:23;18.70;99.90
2190;DHT22;1101;51.056;7.262;2023-08-20T04:25:51;18.70;99.90
2190;DHT22;1101;51.056;7.262;2023-08-20T04:28:19;18.70;99.90
2190;DHT22;1101;51.056;7.262;2023-08-20T04:30:46;18.60;99.90
2190;DHT22;1101;51.056;7.262;2023-08-20T04:33:14;18.60;99.90
2190;DHT22;1101;51.056;7.262;2023-08-20T04:35:42;18.60;99.90
2190;DHT22;1101;51.056;7.262;2023-08-20T04:38:10;18.70;99.90
2190;DHT22;1101;51.056;7.262;2023-08-20T04:40:39;18.60;99.90
2190;DHT22;1101;51.056;7.262;2023-08-20T04:43:07;18.60;99.90
2190;DHT22;1101;51.056;7.262;2023-08-20T04:45:35;18.60;99.90
2190;DHT22;1101;51.056;7.262;2023-08-20T04:48:03;18.60;99.90
2190;DHT22;1101;51.056;7.262;2023-08-20T04:50:31;18.60;99.90
2190;DHT22;1101;51.056;7.262;2023-08-20T04:52:58;18.70;99.90
2190;DHT22;1101;51.056;7.262;2023-08-20T04:55:26;18.60;99.90
2190;DHT22;1101;51.056;7.262;2023-08-20T04:57:56;18.70;99.90
2190;DHT22;1101;51.056;7.262;2023-08-20T05:00:23;18.70;99.90
2190;DHT22;1101;51.056;7.262;2023-08-20T05:02:51;18.70;99.90
2190;DHT22;1101;51.056;7.262;2023-08-20T05:05:19;18.70;99.90
2190;DHT22;1101;51.056;7.262;2023-08-20T05:07:47;18.70;99.90
2190;DHT22;1101;51.056;7.262;2023-08-20T05:10:15;18.70;99.90
2190;DHT22;1101;51.056;7.262;2023-08-20T05:12:43;18.70;99.90
2190;DHT22;1101;51.056;7.262;2023-08-20T05:15:12;18.80;99.90
2190;DHT22;1101;51.056;7.262;2023-08-20T05:17:40;18.80;99.90
2190;DHT22;1101;51.056;7.262;2023-08-20T05:20:08;18.80;99.90
2190;DHT22;1101;51.056;7.262;2023-08-20T05:22:36;18.80;99.90
2190;DHT22;1101;51.056;7.262;2023-08-20T05:25:04;18.80;99.90
2190;DHT22;1101;51.056;7.262;2023-08-20T05:27:32;18.80;99.90
2190;DHT22;1101;51.056;7.262;2023-08-20T05:30:04;18.80;99.90
2190;DHT22;1101;51.056;7.262;2023-08-20T05:32:34;18.80;99.90
2190;DHT22;1101;51.056;7.262;2023-08-20T05:35:02;18.90;99.90
2190;DHT22;1101;51.056;7.262;2023-08-20T05:37:30;18.90;99.90
2190;DHT22;1101;51.056;7.262;2023-08-20T05:39:58;18.90;99.90
2190;DHT22;1101;51.056;7.262;2023-08-20T05:42:26;18.80;99.90
2190;DHT22;1101;51.056;7.262;2023-08-20T05:44:54;18.90;99.90
2190;DHT22;1101;51.056;7.262;2023-08-20T05:47:22;18.90;99.90
2190;DHT22;1101;51.056;7.262;2023-08-20T05:49:51;19.00;99.90
2190;DHT22;1101;51.056;7.262;2023-08-20T05:52:19;19.00;99.90
2190;DHT22;1101;51.056;7.262;2023-08-20T05:54:47;19.10;99.90
2190;DHT22;1101;51.056;7.262;2023-08-20T05:57:15;19.10;99.90
2190;DHT22;1101;51.056;7.262;2023-08-20T05:59:43;19.20;99.90
2190;DHT22;1101;51.056;7.262;2023-08-20T06:02:14;19.20;99.90
2190;DHT22;1101;51.056;7.262;2023-08-20T06:04:43;19.30;99.90
2190;DHT22;1101;51.056;7.262;2023-08-20T06:07:12;19.30;99.90
2190;DHT22;1101;51.056;7.262;2023-08-20T06:09:40;19.30;99.90
2190;DHT22;1101;51.056;7.262;2023-08-20T06:12:07;19.40;99.90
2190;DHT22;1101;51.056;7.262;2023-08-20T06:14:35;19.40;99.90
2190;DHT22;1101;51.056;7.262;2023-08-20T06:17:03;19.50;99.90
2190;DHT22;1101;51.056;7.262;2023-08-20T06:19:31;19.60;99.90
2190;DHT22;1101;51.056;7.262;2023-08-20T06:22:00;19.70;99.90
2190;DHT22;1101;51.056;7.262;2023-08-20T06:24:30;19.70;99.90
2190;DHT22;1101;51.056;7.262;2023-08-20T06:26:58;19.80;99.90
2190;DHT22;1101;51.056;7.262;2023-08-20T06:29:26;19.90;99.90
2190;DHT22;1101;51.056;7.262;2023-08-20T06:31:54;20.00;99.90
2190;DHT22;1101;51.056;7.262;2023-08-20T06:34:22;20.00;99.90
2190;DHT22;1101;51.056;7.262;2023-08-20T06:36:49;20.10;99.90
2190;DHT22;1101;51.056;7.262;2023-08-20T06:39:17;20.20;99.90
2190;DHT22;1101;51.056;7.262;2023-08-20T06:41:47;20.20;99.90
2190;DHT22;1101;51.056;7.262;2023-08-20T06:44:15;20.30;99.90
2190;DHT22;1101;51.056;7.262;2023-08-20T06:46:43;20.40;99.90
2190;DHT22;1101;51.056;7.262;2023-08-20T06:49:11;20.50;99.90
2190;DHT22;1101;51.056;7.262;2023-08-20T06:51:39;20.60;99.90
2190;DHT22;1101;51.056;7.262;2023-08-20T06:54:07;20.60;99.90
2190;DHT22;1101;51.056;7.262;2023-08-20T06:56:35;20.70;99.90
2190;DHT22;1101;51.056;7.262;2023-08-20T06:59:04;20.80;99.90
2190;DHT22;1101;51.056;7.262;2023-08-20T07:01:31;20.90;99.90
2190;DHT22;1101;51.056;7.262;2023-08-20T07:03:59;20.90;99.90
2190;DHT22;1101;51.056;7.262;2023-08-20T07:06:30;21.00;99.90
2190;DHT22;1101;51.056;7.262;2023-08-20T07:08:58;21.10;99.90
2190;DHT22;1101;51.056;7.262;2023-08-20T07:11:25;21.20;99.90
2190;DHT22;1101;51.056;7.262;2023-08-20T07:13:53;21.30;99.90
2190;DHT22;1101;51.056;7.262;2023-08-20T07:16:22;21.40;99.90
2190;DHT22;1101;51.056;7.262;2023-08-20T07:18:50;21.50;99.90
2190;DHT22;1101;51.056;7.262;2023-08-20T07:21:19;21.60;99.90
2190;DHT22;1101;51.056;7.262;2023-08-20T07:23:47;21.60;99.90
2190;DHT22;1101;51.056;7.262;2023-08-20T07:26:15;21.70;99.90
2190;DHT22;1101;51.056;7.262;2023-08-20T07:28:43;21.80;99.90
2190;DHT22;1101;51.056;7.262;2023-08-20T07:31:29;21.90;99.90
2190;DHT22;1101;51.056;7.262;2023-08-20T07:33:58;22.00;99.90
2190;DHT22;1101;51.056;7.262;2023-08-20T07:36:29;22.10;99.90
2190;DHT22;1101;51.056;7.262;2023-08-20T07:38:59;22.20;99.90
2190;DHT22;1101;51.056;7.262;2023-08-20T07:41:28;22.20;99.90
2190;DHT22;1101;51.056;7.262;2023-08-20T07:43:56;22.20;99.90
2190;DHT22;1101;51.056;7.262;2023-08-20T07:46:24;22.30;99.90
2190;DHT22;1101;51.056;7.262;2023-08-20T07:48:53;22.40;99.90
2190;DHT22;1101;51.056;7.262;2023-08-20T07:51:21;22.50;99.90
2190;DHT22;1101;51.056;7.262;2023-08-20T07:53:49;22.50;99.90
2190;DHT22;1101;51.056;7.262;2023-08-20T07:56:16;22.60;99.90
2190;DHT22;1101;51.056;7.262;2023-08-20T07:58:44;22.80;99.90
2190;DHT22;1101;51.056;7.262;2023-08-20T08:01:12;22.80;99.90
2190;DHT22;1101;51.056;7.262;2023-08-20T08:03:40;22.90;99.90
2190;DHT22;1101;51.056;7.262;2023-08-20T08:06:10;23.00;99.90
2190;DHT22;1101;51.056;7.262;2023-08-20T08:08:42;23.00;99.90
2190;DHT22;1101;51.056;7.262;2023-08-20T08:11:10;23.10;99.90
2190;DHT22;1101;51.056;7.262;2023-08-20T08:13:38;23.20;99.90
2190;DHT22;1101;51.056;7.262;2023-08-20T08:16:05;23.30;99.90
2190;DHT22;1101;51.056;7.262;2023-08-20T08:18:33;23.40;99.90
2190;DHT22;1101;51.056;7.262;2023-08-20T08:21:01;23.50;99.90
2190;DHT22;1101;51.056;7.262;2023-08-20T08:23:30;23.50;99.90
2190;DHT22;1101;51.056;7.262;2023-08-20T08:25:58;23.70;99.90
2190;DHT22;1101;51.056;7.262;2023-08-20T08:28:26;23.80;99.90
2190;DHT22;1101;51.056;7.262;2023-08-20T08:30:54;23.90;99.90
2190;DHT22;1101;51.056;7.262;2023-08-20T08:33:22;24.00;99.90
2190;DHT22;1101;51.056;7.262;2023-08-20T08:35:50;24.10;99.90
2190;DHT22;1101;51.056;7.262;2023-08-20T08:38:18;24.20;99.90
2190;DHT22;1101;51.056;7.262;2023-08-20T08:40:48;24.30;99.90
2190;DHT22;1101;51.056;7.262;2023-08-20T08:43:16;24.40;99.90
2190;DHT22;1101;51.056;7.262;2023-08-20T08:45:46;24.50;99.90
2190;DHT22;1101;51.056;7.262;2023-08-20T08:48:15;24.60;99.90
2190;DHT22;1101;51.056;7.262;2023-08-20T08:50:46;24.70;99.90
2190;DHT22;1101;51.056;7.262;2023-08-20T08:53:14;24.80;99.90
2190;DHT22;1101;51.056;7.262;2023-08-20T08:55:42;24.90;99.90
2190;DHT22;1101;51.056;7.262;2023-08-20T08:58:11;25.00;99.90
2190;DHT22;1101;51.056;7.262;2023-08-20T09:00:39;25.00;99.90
2190;DHT22;1101;51.056;7.262;2023-08-20T09:03:07;24.90;99.90
2190;DHT22;1101;51.056;7.262;2023-08-20T09:05:45;24.90;99.90
2190;DHT22;1101;51.056;7.262;2023-08-20T09:08:19;25.00;99.90
2190;DHT22;1101;51.056;7.262;2023-08-20T09:10:50;25.10;99.90
2190;DHT22;1101;51.056;7.262;2023-08-20T09:13:22;25.20;99.90
2190;DHT22;1101;51.056;7.262;2023-08-20T09:15:51;25.30;99.90
2190;DHT22;1101;51.056;7.262;2023-08-20T09:18:20;25.30;99.90
2190;DHT22;1101;51.056;7.262;2023-08-20T09:20:48;25.40;99.90
2190;DHT22;1101;51.056;7.262;2023-08-20T09:23:16;25.40;99.90
2190;DHT22;1101;51.056;7.262;2023-08-20T09:25:44;25.50;99.90
2190;DHT22;1101;51.056;7.262;2023-08-20T09:28:13;25.60;99.90
2190;DHT22;1101;51.056;7.262;2023-08-20T09:30:54;25.70;99.90
2190;DHT22;1101;51.056;7.262;2023-08-20T09:33:22;25.80;99.90
2190;DHT22;1101;51.056;7.262;2023-08-20T09:35:51;25.80;99.90
2190;DHT22;1101;51.056;7.262;2023-08-20T09:38:21;25.90;99.90
2190;DHT22;1101;51.056;7.262;2023-08-20T09:40:50;25.90;99.90
2190;DHT22;1101;51.056;7.262;2023-08-20T09:43:19;25.90;99.90
2190;DHT22;1101;51.056;7.262;2023-08-20T09:45:49;25.90;99.90
2190;DHT22;1101;51.056;7.262;2023-08-20T09:48:18;25.80;99.80
2190;DHT22;1101;51.056;7.262;2023-08-20T09:50:47;25.80;99.90
2190;DHT22;1101;51.056;7.262;2023-08-20T09:53:24;25.70;99.70
2190;DHT22;1101;51.056;7.262;2023-08-20T09:55:56;25.60;99.70
2190;DHT22;1101;51.056;7.262;2023-08-20T09:58:26;25.50;99.70
2190;DHT22;1101;51.056;7.262;2023-08-20T10:00:56;25.40;99.70
2190;DHT22;1101;51.056;7.262;2023-08-20T10:03:24;25.40;99.70
2190;DHT22;1101;51.056;7.262;2023-08-20T10:05:53;25.40;99.80
2190;DHT22;1101;51.056;7.262;2023-08-20T10:08:21;25.40;99.80
2190;DHT22;1101;51.056;7.262;2023-08-20T10:10:49;25.30;99.70
2190;DHT22;1101;51.056;7.262;2023-08-20T10:13:17;25.30;99.90
2190;DHT22;1101;51.056;7.262;2023-08-20T10:15:46;25.40;99.90
2190;DHT22;1101;51.056;7.262;2023-08-20T10:18:15;25.50;99.90
2190;DHT22;1101;51.056;7.262;2023-08-20T10:20:46;25.70;99.90
2190;DHT22;1101;51.056;7.262;2023-08-20T10:23:13;25.90;99.90
2190;DHT22;1101;51.056;7.262;2023-08-20T10:25:42;26.00;99.60
2190;DHT22;1101;51.056;7.262;2023-08-20T10:28:13;26.10;99.40
2190;DHT22;1101;51.056;7.262;2023-08-20T10:31:04;26.20;99.30
2190;DHT22;1101;51.056;7.262;2023-08-20T10:33:35;26.30;99.10
2190;DHT22;1101;51.056;7.262;2023-08-20T10:36:08;26.20;98.90
2190;DHT22;1101;51.056;7.262;2023-08-20T10:38:37;26.20;98.90
2190;DHT22;1101;51.056;7.262;2023-08-20T10:41:08;26.20;98.90
2190;DHT22;1101;51.056;7.262;2023-08-20T10:43:38;26.20;98.80
2190;DHT22;1101;51.056;7.262;2023-08-20T10:46:08;26.10;98.70
2190;DHT22;1101;51.056;7.262;2023-08-20T10:48:39;26.10;98.90
2190;DHT22;1101;51.056;7.262;2023-08-20T10:51:09;26.20;99.00
2190;DHT22;1101;51.056;7.262;2023-08-20T10:53:37;26.30;99.00
2190;DHT22;1101;51.056;7.262;2023-08-20T10:56:12;26.50;98.90
2190;DHT22;1101;51.056;7.262;2023-08-20T10:58:42;26.60;98.80
2190;DHT22;1101;51.056;7.262;2023-08-20T11:01:21;26.70;98.40
2190;DHT22;1101;51.056;7.262;2023-08-20T11:03:50;26.70;98.40
2190;DHT22;1101;51.056;7.262;2023-08-20T11:06:18;26.80;98.40
2190;DHT22;1101;51.056;7.262;2023-08-20T11:08:46;27.00;98.20
2190;DHT22;1101;51.056;7.262;2023-08-20T11:11:15;27.00;98.20
2190;DHT22;1101;51.056;7.262;2023-08-20T11:13:43;27.20;97.90
2190;DHT22;1101;51.056;7.262;2023-08-20T11:16:11;27.20;97.90
2190;DHT22;1101;51.056;7.262;2023-08-20T11:18:38;27.30;97.80
2190;DHT22;1101;51.056;7.262;2023-08-20T11:21:08;27.30;97.70
2190;DHT22;1101;51.056;7.262;2023-08-20T11:23:36;27.40;97.90
2190;DHT22;1101;51.056;7.262;2023-08-20T11:26:07;27.50;97.60
2190;DHT22;1101;51.056;7.262;2023-08-20T11:28:35;27.40;97.30
2190;DHT22;1101;51.056;7.262;2023-08-20T11:31:03;27.30;97.30
2190;DHT22;1101;51.056;7.262;2023-08-20T11:33:31;27.20;97.40
2190;DHT22;1101;51.056;7.262;2023-08-20T11:35:59;27.10;97.60
2190;DHT22;1101;51.056;7.262;2023-08-20T11:38:28;27.10;97.70
2190;DHT22;1101;51.056;7.262;2023-08-20T11:40:58;27.20;97.80
2190;DHT22;1101;51.056;7.262;2023-08-20T11:43:27;27.30;97.70
2190;DHT22;1101;51.056;7.262;2023-08-20T11:45:55;27.40;97.60
2190;DHT22;1101;51.056;7.262;2023-08-20T11:48:23;27.50;97.60
2190;DHT22;1101;51.056;7.262;2023-08-20T11:50:51;27.60;97.50
2190;DHT22;1101;51.056;7.262;2023-08-20T11:53:21;27.70;97.30
2190;DHT22;1101;51.056;7.262;2023-08-20T11:55:51;27.80;97.00
2190;DHT22;1101;51.056;7.262;2023-08-20T11:58:19;27.90;97.10
2190;DHT22;1101;51.056;7.262;2023-08-20T12:00:49;28.00;97.10
2190;DHT22;1101;51.056;7.262;2023-08-20T12:03:18;28.10;97.10
2190;DHT22;1101;51.056;7.262;2023-08-20T12:05:47;28.20;97.00
2190;DHT22;1101;51.056;7.262;2023-08-20T12:08:15;28.30;96.80
2190;DHT22;1101;51.056;7.262;2023-08-20T12:10:43;28.40;96.70
2190;DHT22;1101;51.056;7.262;2023-08-20T12:13:13;28.50;96.50
2190;DHT22;1101;51.056;7.262;2023-08-20T12:15:40;28.50;96.40
2190;DHT22;1101;51.056;7.262;2023-08-20T12:18:08;28.60;96.30
2190;DHT22;1101;51.056;7.262;2023-08-20T12:20:37;28.60;96.20
2190;DHT22;1101;51.056;7.262;2023-08-20T12:23:06;28.60;96.00
2190;DHT22;1101;51.056;7.262;2023-08-20T12:25:35;28.60;96.00
2190;DHT22;1101;51.056;7.262;2023-08-20T12:28:03;28.70;96.10
2190;DHT22;1101;51.056;7.262;2023-08-20T12:30:33;28.70;96.00
2190;DHT22;1101;51.056;7.262;2023-08-20T12:33:05;28.80;95.80
2190;DHT22;1101;51.056;7.262;2023-08-20T12:35:34;28.90;95.70
2190;DHT22;1101;51.056;7.262;2023-08-20T12:38:02;28.80;95.30
2190;DHT22;1101;51.056;7.262;2023-08-20T12:40:31;28.60;95.30
2190;DHT22;1101;51.056;7.262;2023-08-20T12:42:58;28.50;95.30
2190;DHT22;1101;51.056;7.262;2023-08-20T12:45:26;28.30;95.50
2190;DHT22;1101;51.056;7.262;2023-08-20T12:47:55;28.30;95.60
2190;DHT22;1101;51.056;7.262;2023-08-20T12:50:27;28.40;95.60
2190;DHT22;1101;51.056;7.262;2023-08-20T12:52:55;28.50;95.60
2190;DHT22;1101;51.056;7.262;2023-08-20T12:55:23;28.50;95.40
2190;DHT22;1101;51.056;7.262;2023-08-20T12:57:55;28.60;95.30
2190;DHT22;1101;51.056;7.262;2023-08-20T13:00:24;28.70;95.40
2190;DHT22;1101;51.056;7.262;2023-08-20T13:02:54;28.70;95.30
2190;DHT22;1101;51.056;7.262;2023-08-20T13:05:25;28.80;95.20
2190;DHT22;1101;51.056;7.262;2023-08-20T13:07:53;28.90;95.20
2190;DHT22;1101;51.056;7.262;2023-08-20T13:10:22;29.00;95.10
2190;DHT22;1101;51.056;7.262;2023-08-20T13:12:51;29.00;94.90
2190;DHT22;1101;51.056;7.262;2023-08-20T13:15:22;29.00;94.70
2190;DHT22;1101;51.056;7.262;2023-08-20T13:17:52;28.90;94.20
2190;DHT22;1101;51.056;7.262;2023-08-20T13:20:20;28.70;94.20
2190;DHT22;1101;51.056;7.262;2023-08-20T13:22:51;28.50;94.40
2190;DHT22;1101;51.056;7.262;2023-08-20T13:25:20;28.40;94.60
2190;DHT22;1101;51.056;7.262;2023-08-20T13:27:48;28.40;94.50
2190;DHT22;1101;51.056;7.262;2023-08-20T13:30:17;28.30;94.40
2190;DHT22;1101;51.056;7.262;2023-08-20T13:32:45;28.30;94.60
2190;DHT22;1101;51.056;7.262;2023-08-20T13:35:13;28.30;94.70
2190;DHT22;1101;51.056;7.262;2023-08-20T13:37:41;28.40;94.70
2190;DHT22;1101;51.056;7.262;2023-08-20T13:40:11;28.50;94.70
2190;DHT22;1101;51.056;7.262;2023-08-20T13:42:39;28.60;94.60
2190;DHT22;1101;51.056;7.262;2023-08-20T13:45:07;28.70;94.50
2190;DHT22;1101;51.056;7.262;2023-08-20T13:47:36;28.70;94.40
2190;DHT22;1101;51.056;7.262;2023-08-20T13:50:04;28.80;94.40
2190;DHT22;1101;51.056;7.262;2023-08-20T13:52:32;28.80;94.20
2190;DHT22;1101;51.056;7.262;2023-08-20T13:55:00;28.80;94.10
2190;DHT22;1101;51.056;7.262;2023-08-20T13:57:30;28.80;94.20
2190;DHT22;1101;51.056;7.262;2023-08-20T13:59:58;28.90;94.20
2190;DHT22;1101;51.056;7.262;2023-08-20T14:02:26;29.00;94.10
2190;DHT22;1101;51.056;7.262;2023-08-20T14:04:54;29.00;93.70
2190;DHT22;1101;51.056;7.262;2023-08-20T14:07:22;28.90;93.60
2190;DHT22;1101;51.056;7.262;2023-08-20T14:09:50;28.90;93.50
2190;DHT22;1101;51.056;7.262;2023-08-20T14:12:18;28.80;93.40
2190;DHT22;1101;51.056;7.262;2023-08-20T14:14:48;28.70;92.90
2190;DHT22;1101;51.056;7.262;2023-08-20T14:17:16;28.50;93.30
2190;DHT22;1101;51.056;7.262;2023-08-20T14:19:43;28.50;93.40
2190;DHT22;1101;51.056;7.262;2023-08-20T14:22:11;28.40;93.20
2190;DHT22;1101;51.056;7.262;2023-08-20T14:24:39;28.30;93.30
2190;DHT22;1101;51.056;7.262;2023-08-20T14:27:07;28.30;93.50
2190;DHT22;1101;51.056;7.262;2023-08-20T14:29:35;28.30;93.50
2190;DHT22;1101;51.056;7.262;2023-08-20T14:32:04;28.30;93.50
2190;DHT22;1101;51.056;7.262;2023-08-20T14:34:32;28.40;93.60
2190;DHT22;1101;51.056;7.262;2023-08-20T14:37:00;28.50;93.70
2190;DHT22;1101;51.056;7.262;2023-08-20T14:39:28;28.60;93.40
2190;DHT22;1101;51.056;7.262;2023-08-20T14:41:58;28.60;93.60
2190;DHT22;1101;51.056;7.262;2023-08-20T14:44:26;28.70;93.50
2190;DHT22;1101;51.056;7.262;2023-08-20T14:46:54;28.70;93.10
2190;DHT22;1101;51.056;7.262;2023-08-20T14:49:23;28.70;93.10
2190;DHT22;1101;51.056;7.262;2023-08-20T14:51:51;28.70;93.20
2190;DHT22;1101;51.056;7.262;2023-08-20T14:54:31;28.70;93.00
2190;DHT22;1101;51.056;7.262;2023-08-20T14:56:59;28.80;93.10
2190;DHT22;1101;51.056;7.262;2023-08-20T14:59:27;28.90;93.00
2190;DHT22;1101;51.056;7.262;2023-08-20T15:01:55;28.90;92.80
2190;DHT22;1101;51.056;7.262;2023-08-20T15:04:24;29.00;92.60
2190;DHT22;1101;51.056;7.262;2023-08-20T15:06:52;29.00;92.60
2190;DHT22;1101;51.056;7.262;2023-08-20T15:09:20;29.00;92.50
2190;DHT22;1101;51.056;7.262;2023-08-20T15:11:48;29.00;92.50
2190;DHT22;1101;51.056;7.262;2023-08-20T15:14:15;29.10;92.40
2190;DHT22;1101;51.056;7.262;2023-08-20T15:16:45;29.10;92.30
2190;DHT22;1101;51.056;7.262;2023-08-20T15:19:13;29.10;92.30
2190;DHT22;1101;51.056;7.262;2023-08-20T15:21:42;29.10;92.20
2190;DHT22;1101;51.056;7.262;2023-08-20T15:24:09;29.10;92.20
2190;DHT22;1101;51.056;7.262;2023-08-20T15:26:37;29.00;91.90
2190;DHT22;1101;51.056;7.262;2023-08-20T15:29:05;29.10;92.00
2190;DHT22;1101;51.056;7.262;2023-08-20T15:31:33;29.10;92.10
2190;DHT22;1101;51.056;7.262;2023-08-20T15:34:01;29.10;92.10
2190;DHT22;1101;51.056;7.262;2023-08-20T15:36:29;29.00;91.90
2190;DHT22;1101;51.056;7.262;2023-08-20T15:38:58;29.00;92.00
2190;DHT22;1101;51.056;7.262;2023-08-20T15:41:26;29.00;91.90
2190;DHT22;1101;51.056;7.262;2023-08-20T15:43:54;29.00;91.90
2190;DHT22;1101;51.056;7.262;2023-08-20T15:46:22;29.00;91.80
2190;DHT22;1101;51.056;7.262;2023-08-20T15:48:50;29.00;92.00
2190;DHT22;1101;51.056;7.262;2023-08-20T15:51:18;29.00;92.00
2190;DHT22;1101;51.056;7.262;2023-08-20T15:53:46;29.10;91.90
2190;DHT22;1101;51.056;7.262;2023-08-20T15:56:15;29.10;91.80
2190;DHT22;1101;51.056;7.262;2023-08-20T15:58:43;29.10;91.80
2190;DHT22;1101;51.056;7.262;2023-08-20T16:01:11;29.10;91.90
2190;DHT22;1101;51.056;7.262;2023-08-20T16:03:38;29.10;91.30
2190;DHT22;1101;51.056;7.262;2023-08-20T16:06:06;29.00;91.30
2190;DHT22;1101;51.056;7.262;2023-08-20T16:08:34;28.90;91.10
2190;DHT22;1101;51.056;7.262;2023-08-20T16:11:02;28.70;91.40